Bruno Assis

Olheiro - Palmeiras
8 Dez 2028
Sexta-feira
Processo

Personalidade

Adaptabilidade (16) Ambição (1) Controvérsia (1) Lealdade (1) Pressão (8) Profissionalismo (9) Espírito Esportivo (19) Temperamento (16)

Perfil

Estilo de Treinamento Democrático
Licença Nacional A
Determinação 7
Gestão de Pessoas 7
Motivação 12
Disciplina 6
Satisfação no Trabalho
100%
Fadiga
0%
Função Olheiro
Salário 110.3K p/s
Contrato 14.03.2029

Desempenho

Comportamento Bom
Eficácia do Treinamento
68%
Desenvolvimento do Jogador
65%
Prevenção de Lesões
30%
Implementação Tática
80%

Eventos Recentes

Participou de uma reunião de recrutamento agora
Recomendou um alvo de transferência agora
Recomendou um alvo de transferência agora
Apresentou um dossiê à direção agora
Apresentou um dossiê à direção agora
Apresentou um dossiê à direção 7d atrás
Apresentou um dossiê à direção 7d atrás
Apresentou um dossiê à direção 7d atrás

Monitorando agora

177
Jogador Clube Status Habilidade Confiança Observado Última observação Último voto
Igor Felisberto Sport Recife Ativo 114 / 127 86% 1 04.12.2028 Aprovar
Franco Herrera Bragantino Negociando 116 / 124 86% 1 02.12.2028 -
Endrick Boca Juniors Negociando 163 / 158 40% 1 02.12.2028 -
Matías Fernández-Pardo Atalanta Ativo 159 / 150 40% 1 02.12.2028 -
Lucas Sasha Fortaleza Perdido 114 / 105 86% 1 01.12.2028 -
Santiago Salcedo Cruzeiro Ativo 162 / 157 40% 8 30.11.2028 -
Kaiki Cruzeiro Ativo 140 / 133 40% 6 30.11.2028 -
Guille Rosas Boca Juniors Ativo 150 / 145 40% 8 30.11.2028 -
Rico Lewis West Bromwich Albion Ativo 162 / 164 40% 6 29.11.2028 -
Souffian El Karouani Al-Qadisiyah Ativo 140 / 147 40% 6 29.11.2028 -
Naves Internacional Ativo 133 / 131 40% 3 28.11.2028 -
Sven Botman Newcastle United Ativo 171 / 157 40% 2 28.11.2028 -
Juanlu Bournemouth Ativo 157 / 166 40% 1 28.11.2028 -
Marcos Antonio Sport Recife Ativo 142 / 138 40% 6 26.11.2028 -
Adrien Truffert Flamengo Ativo 162 / 152 40% 9 25.11.2028 -
Robert Renan Zenit Ativo 134 / 127 40% 5 25.11.2028 -
Jacob Greaves Ipswich Town Ativo 146 / 155 40% 1 25.11.2028 -
Harry Clarke Preston Ativo 138 / 144 40% 2 23.11.2028 -
Damián Bobadilla Sport Recife Ativo 136 / 133 40% 7 23.11.2028 -
Alexandro Bernabei Internacional Ativo 141 / 132 40% 3 23.11.2028 -
Manu Koné AS Roma Ativo 176 / 177 40% 4 22.11.2028 -
Maximiliano Araújo West Ham United Ativo 158 / 162 40% 10 18.11.2028 -
Santiago Ramos Mingo Bahia Ativo 138 / 131 40% 5 18.11.2028 -
Tino Livramento Newcastle United Ativo 163 / 163 40% 6 16.11.2028 -
Daniel Banjaqui Benfica Ativo 127 / 127 40% 5 16.11.2028 -
Juan Pablo Freytes Fluminense Ativo 133 / 124 40% 5 14.11.2028 -
Álex Valle Boca Juniors Ativo 147 / 142 40% 3 14.11.2028 -
Amadou Onana Aston Villa Ativo 160 / 151 40% 2 14.11.2028 -
Lucas Piton Vasco da Gama Ativo 134 / 142 40% 10 13.11.2028 -
Cuiabano Nottingham Forest Ativo 137 / 142 40% 8 12.11.2028 -
Riku Yamane Yokohama F. Marinos Ativo 141 / 138 40% 6 12.11.2028 -
Danilo Botafogo Ativo 144 / 146 40% 5 12.11.2028 -
Martinelli Fluminense Ativo 146 / 146 40% 9 11.11.2028 -
Wesley Fofana Chelsea Ativo 177 / 177 40% 1 11.11.2028 -
Cauan Barros Flamengo Ativo 135 / 134 40% 4 10.11.2028 -
Reece James Chelsea Ativo 177 / 183 40% 2 08.11.2028 -
Matteo Ruggeri Middlesbrough Ativo 162 / 161 40% 1 08.11.2028 -
Felipe Loyola Bahia Ativo 145 / 147 40% 5 06.11.2028 -
Levi Colwill Chelsea Ativo 171 / 170 40% 2 06.11.2028 -
Tobías Ramírez River Plate Ativo 131 / 138 40% 3 02.11.2028 -
Boubacar Kamara Aston Villa Ativo 166 / 167 40% 4 27.10.2028 -
Ryan Sessegnon Fulham Ativo 154 / 153 40% 3 23.10.2028 -
Miguel Figueiredo Benfica Ativo 130 / 135 40% 1 23.10.2028 -
Salvador Blopá Wolverhampton Ativo 127 / 127 40% 1 22.10.2028 -
Bruno Gomes Internacional Ativo 136 / 132 40% 1 18.10.2028 -
Alex Scott Bournemouth Ativo 159 / 164 40% 3 15.10.2028 -
Ousmane Diomande Nottingham Forest Ativo 164 / 170 40% 3 12.10.2028 -
Mats Wieffer Brighton Ativo 155 / 155 40% 1 11.10.2028 -
Fredrik Sjøvold Bodo/Glimt Ativo 144 / 129 40% 3 09.10.2028 -
Malick Thiaw Ipswich Town Ativo 160 / 152 40% 1 08.10.2028 -
Vitão Flamengo Ativo 141 / 145 40% 3 01.10.2028 -
Kauã Moraes Flamengo Ativo 136 / 130 40% 2 22.09.2028 -
Celías Ingenthron Platense Ativo 118 / 126 40% 1 12.09.2028 -
Sandro Tonali Tottenham Ativo 180 / 171 40% 2 09.09.2028 -
Riccardo Calafiori Burnley Ativo 166 / 168 40% 1 06.09.2028 -
Alessandro Circati Benfica Ativo 146 / 139 40% 1 03.09.2028 -
Thijs Kraaijeveld USM Alger Ativo 125 / 119 40% 1 25.08.2028 -
Luiz Fernando Fortaleza Ativo 128 / 128 30% 1 / 1m 23.08.2028 -
Sondre Auklend Bodo/Glimt Ativo 131 / 145 40% 1 21.08.2028 -
Khéphren Thuram Juventus Ativo 166 / 163 40% 1 20.08.2028 -
Nathan Patterson Torino Ativo 143 / 134 40% 1 20.08.2028 -
Oumar Solet Udinese Ativo 160 / 148 40% 1 20.08.2028 -
Odilon Kossounou Atalanta Ativo 152 / 151 40% 2 17.08.2028 -
Ignace Van Der Brempt Como Ativo 149 / 135 40% 1 17.08.2028 -
Eivind Helland AC Milan Ativo 139 / 136 40% 3 16.08.2028 -
Matteo Prati Cagliari Ativo 146 / 145 40% 1 16.08.2028 -
Antonio Candela Spezia Ativo 138 / 143 40% 1 16.08.2028 -
Curtis Jones Inter Ativo 158 / 165 40% 1 13.08.2028 -
Andrea Cambiaso Juventus Ativo 155 / 156 40% 1 13.08.2028 -
Gabriele Zappa Cagliari Ativo 141 / 144 40% 1 12.08.2028 -
Morten Frendrup Palermo Ativo 151 / 154 40% 1 12.08.2028 -
Enrico Delprato Parma Ativo 154 / 159 40% 1 11.08.2028 -
Rafa Marín Pisa Ativo 159 / 153 40% 1 11.08.2028 -
Josh Doig Avellino Ativo 147 / 140 40% 1 10.08.2028 -
Michele Collocolo Cremonese Ativo 137 / 144 40% 1 10.08.2028 -
Honest Ahanor Atalanta Ativo 144 / 137 40% 1 10.08.2028 -
Adam Wharton Crystal Palace Ativo 160 / 170 40% 6 09.08.2028 -
Bafodé Diakité Plymouth Argyle Ativo 148 / 144 40% 1 09.08.2028 -
Max Johnston Derby County Ativo 138 / 138 40% 1 09.08.2028 -
Archie Gray Southampton Ativo 160 / 163 40% 2 08.08.2028 -
Neco Williams Wrexham Ativo 157 / 152 40% 1 08.08.2028 -
Lamare Bogarde Reading Ativo 144 / 135 40% 1 07.08.2028 -
Patrick Dorgu Bristol City Ativo 150 / 157 40% 1 07.08.2028 -
Marco Moreno Bahia Ativo 127 / 120 86% 1 10.07.2028 Aprovar
Yerson Mosquera Wolverhampton Ativo 143 / 136 40% 1 04.07.2028 -
Xavi Simons Tottenham Ativo 164 / 152 40% 2 19.06.2028 -
Jayden Danns Bradford City Ativo 141 / 145 40% 1 19.06.2028 -
Giacomo Raspadori Atalanta Ativo 151 / 161 40% 2 31.05.2028 -
Andrey Santos Bolton Wanderers Ativo 145 / 140 40% 1 31.05.2028 -
Jacques Ekomié Wrexham Ativo 139 / 128 40% 1 31.05.2028 -
Lucca Ceará Ativo 121 / 124 42% 1 / 1m 07.07.2027 -
Noussair Mazraoui Manchester United Ativo 162 / 158 40% 2 31.05.2027 -
James Garner Everton Ativo 150 / 154 40% 1 31.05.2027 -
Nicolas Jackson Aston Villa Ativo 150 / 149 40% 1 30.05.2027 -
Chemsdine Talbi Sunderland Ativo 147 / 155 40% 2 19.05.2027 -
Matheus Araújo Oeste Ativo 93 / 93 52% 1 / 1m 19.05.2027 -
Jonas Oeste Ativo 77 / 82 30% 1 / 1m 19.05.2027 -
Gustavo America Mineiro Ativo 128 / 128 42% 1 / 1m 19.05.2027 -
Kevin Fulham Ativo 147 / 136 40% 1 17.05.2027 -
Ismaïla Sarr Crystal Palace Ativo 145 / 134 40% 2 15.05.2027 -
Gabriel Martinelli Arsenal Ativo 158 / 169 40% 3 15.05.2027 -
Yeremy Pino Crystal Palace Ativo 148 / 150 40% 1 08.05.2027 -
Iliman N'Diaye Everton Ativo 164 / 157 40% 1 30.04.2027 -
James Maddison Tottenham Ativo 157 / 153 40% 1 29.04.2027 -
Hugo Ekitiké Liverpool Ativo 165 / 153 40% 1 17.04.2027 -
David Brooks Bournemouth Ativo 148 / 128 40% 2 13.04.2027 -
Igor Burnley Ativo 140 / 156 40% 1 13.04.2027 -
Martin Baturina Como Ativo 145 / 136 40% 1 13.04.2027 -
Othmane Maamma Watford Ativo 118 / 123 40% 1 12.04.2027 -
Emiliano Buendía Aston Villa Ativo 149 / 155 40% 1 12.04.2027 -
Kyle Walker-Peters West Ham United Ativo 131 / 129 40% 1 11.04.2027 -
Antoni Milambo Brentford Ativo 139 / 142 40% 1 11.04.2027 -
Harry Wilson Leeds United Ativo 142 / 139 40% 5 08.04.2027 -
Malcom Al Jazira Ativo 155 / 141 40% 4 31.03.2027 -
Eddie Nketiah Crystal Palace Ativo 139 / 134 40% 1 31.03.2027 -
Azor Matusiwa Ipswich Town Ativo 144 / 135 40% 1 30.03.2027 -
Andreas Schjelderup Benfica Ativo 146 / 142 40% 2 21.03.2027 -
Yoane Wissa Newcastle United Ativo 141 / 148 40% 2 21.03.2027 -
Pepê Porto Ativo 141 / 137 40% 1 21.03.2027 -
Pau Víctor Braga Ativo 135 / 131 40% 4 19.03.2027 -
Lovro Zvonarek Estrela da Amadora Ativo 130 / 129 40% 2 14.03.2027 -
Iván Fresneda Sporting CP Ativo 137 / 150 40% 1 14.03.2027 -
Hwang In-Beom Porto Ativo 141 / 141 40% 3 12.03.2027 -
Václav Černý Besiktas Ativo 141 / 122 40% 1 12.03.2027 -
Alberto Costa Porto Ativo 146 / 151 40% 7 07.03.2027 -
Gianluca Prestianni Benfica Ativo 130 / 132 40% 2 27.02.2027 -
Samuel Dahl Benfica Ativo 133 / 130 40% 1 27.02.2027 -
Luís Guilherme Sporting CP Ativo 129 / 125 40% 2 26.02.2027 -
Florentino Luís Ipswich Town Ativo 136 / 139 40% 2 26.02.2027 -
Agustín Palavecino Cruz Azul Ativo 131 / 144 40% 2 16.02.2027 -
Pablo Rosario Porto Ativo 139 / 128 40% 1 13.02.2027 -
Enzo Barrenechea Benfica Ativo 154 / 159 40% 11 30.11.2026 -
Geny Sporting CP Ativo 138 / 158 40% 2 30.11.2026 -
Eduardo Quaresma AEL Larisa Ativo 135 / 130 40% 4 29.11.2026 -
Leandro Barreiro Benfica Ativo 141 / 135 40% 1 29.11.2026 -
Victor Froholdt Porto Ativo 155 / 171 40% 5 28.11.2026 -
Hákon Arnar Haraldsson LOSC Lille Ativo 153 / 151 40% 1 28.11.2026 -
Nordi Mukiele Sunderland Ativo 139 / 138 40% 2 27.11.2026 -
Brais Méndez RC Lens Ativo 148 / 146 40% 5 23.11.2026 -
Oscar Al-Taawoun Ativo 144 / 151 40% 2 23.11.2026 -
Keane Lewis-Potter Brentford Ativo 142 / 153 40% 1 22.11.2026 -
Rico Henry River Plate Ativo 137 / 147 40% 6 21.11.2026 -
Sofiane Diop OGC Nice Ativo 137 / 155 40% 2 18.11.2026 -
Roméo Lavia Chelsea Ativo 150 / 165 40% 1 18.11.2026 -
Jake O'Brien Everton Ativo 143 / 143 40% 1 15.11.2026 -
Ritsu Doan Gamba Osaka Ativo 154 / 130 40% 2 13.11.2026 -
Tristan Degreef Anderlecht Ativo 123 / 134 40% 1 13.11.2026 -
Roberto Fernández Braga Ativo 140 / 154 40% 2 10.11.2026 -
Víctor Gómez Braga Ativo 133 / 134 40% 2 09.11.2026 -
Yunus Akgün Galatasaray Ativo 138 / 156 40% 1 05.11.2026 -
Joe Gomez Liverpool Ativo 155 / 143 40% 2 04.11.2026 -
Zeno Debast Sporting CP Ativo 145 / 153 40% 2 04.11.2026 -
Gabriel Gudmundsson Leeds United Ativo 140 / 150 40% 1 30.10.2026 -
António Silva Bournemouth Ativo 146 / 157 40% 2 27.10.2026 -
Ainsley Maitland-Niles Everton Ativo 144 / 147 40% 1 27.10.2026 -
Ibrahim Sangaré Nottingham Forest Ativo 148 / 162 40% 1 27.10.2026 -
Pau Torres Aston Villa Ativo 155 / 135 40% 1 18.10.2026 -
Lucas Paquetá Flamengo Ativo 137 / 129 40% 1 18.10.2026 -
Sepp van den Berg Brentford Ativo 152 / 156 40% 1 18.10.2026 -
Nathan Collins Brentford Ativo 140 / 151 40% 2 14.10.2026 -
Takehiro Tomiyasu Crystal Palace Ativo 136 / 145 40% 1 14.10.2026 -
Nehuén Pérez Porto Ativo 144 / 154 40% 1 12.10.2026 -
Amine Adli Bournemouth Ativo 139 / 148 40% 1 12.10.2026 -
Sergi Altimira Sporting CP Ativo 135 / 122 40% 1 10.10.2026 -
Lisandro Martínez Ajax Ativo 153 / 161 40% 2 06.10.2026 -
Cristian Uribe Monaco Ativo 157 / 134 40% 1 02.10.2026 -
Xaver Schlager Nottingham Forest Ativo 157 / 160 40% 1 29.09.2026 -
Tomás Araújo Benfica Ativo 147 / 132 40% 1 28.09.2026 -
Pedro Porro Tottenham Ativo 142 / 135 40% 1 23.09.2026 -
Dodi Lukébakio Benfica Ativo 139 / 156 40% 1 17.09.2026 -
Amin Boudri Los Angeles Football Club Ativo 114 / 139 40% 1 20.08.2026 -
Malo Gusto Chelsea Ativo 137 / 132 40% 1 17.08.2026 -
Jorge De Frutos Rayo Vallecano Ativo 138 / 161 40% 1 07.08.2026 -
Fran García Betis Ativo 141 / 127 40% 1 06.08.2026 -
Matty Cash Aston Villa Ativo 148 / 142 40% 1 04.08.2026 -
Mikel Oyarzábal Real Sociedad Ativo 158 / 151 40% 1 04.08.2026 -
Robin Roefs Sunderland Ativo 146 / 124 40% 1 02.08.2026 -